Old Harbor, Alaska
Current Conditions -  °F | °C
As of 5:56 AM on Sunday 23 Nov 2014 (Local Time) from PAKH Reporting Station
Light Rain Light Rain  
Wind Chill: 34°   Ceiling: NA
Heat Index: 40°   Visibility: 10mi
Dew Point: 37°   Wind: 9mph
Humidity: 89%   Direction: 80°E
Pressure: 29.21"   Gusts: NA
Location:  57.2°N, 153.31°W
Report Text: PAKH 231456Z AUTO 08008KT 10SM -RA 04/03 A2921 RMK AO2 TSNO 51009 60008 T00440027 P0005 SLP893 $
Loading
Personal Weather Stations






























Interactive Weather Map New forecast layout! Learn more

10-Day Weather Forecast

Advertisements
Track Severe Weather on mobile